sensor_id;sensor_type;location;lat;lon;timestamp;pressure;altitude;pressure_sealevel;temperature;humidity
34482;BME280;20720;48.886;9.388;2022-09-29T00:00:19;96796.94;;;9.49;100.00
34482;BME280;20720;48.886;9.388;2022-09-29T00:02:44;96796.13;;;9.61;100.00
34482;BME280;20720;48.886;9.388;2022-09-29T00:05:09;96797.03;;;9.66;100.00
34482;BME280;20720;48.886;9.388;2022-09-29T00:07:34;96800.91;;;9.64;100.00
34482;BME280;20720;48.886;9.388;2022-09-29T00:10:00;96799.91;;;9.53;100.00
34482;BME280;20720;48.886;9.388;2022-09-29T00:12:25;96794.66;;;9.53;100.00
34482;BME280;20720;48.886;9.388;2022-09-29T00:14:50;96801.88;;;9.34;100.00
34482;BME280;20720;48.886;9.388;2022-09-29T00:17:16;96797.84;;;9.55;100.00
34482;BME280;20720;48.886;9.388;2022-09-29T00:19:41;96797.50;;;9.63;100.00
34482;BME280;20720;48.886;9.388;2022-09-29T00:22:06;96796.81;;;9.56;100.00
34482;BME280;20720;48.886;9.388;2022-09-29T00:24:32;96795.69;;;9.52;100.00
34482;BME280;20720;48.886;9.388;2022-09-29T00:26:58;96787.03;;;9.52;100.00
34482;BME280;20720;48.886;9.388;2022-09-29T00:29:23;96798.53;;;9.39;100.00
34482;BME280;20720;48.886;9.388;2022-09-29T00:31:49;96801.41;;;9.26;100.00
34482;BME280;20720;48.886;9.388;2022-09-29T00:34:14;96795.72;;;9.17;100.00
34482;BME280;20720;48.886;9.388;2022-09-29T00:36:39;96787.84;;;9.06;100.00
34482;BME280;20720;48.886;9.388;2022-09-29T00:39:05;96785.22;;;9.06;100.00
34482;BME280;20720;48.886;9.388;2022-09-29T00:41:31;96787.34;;;8.63;100.00
34482;BME280;20720;48.886;9.388;2022-09-29T00:47:04;96780.31;;;8.86;100.00
34482;BME280;20720;48.886;9.388;2022-09-29T00:49:40;96785.22;;;9.06;100.00
34482;BME280;20720;48.886;9.388;2022-09-29T00:52:09;96787.03;;;9.05;100.00
34482;BME280;20720;48.886;9.388;2022-09-29T00:54:40;96780.09;;;9.11;100.00
34482;BME280;20720;48.886;9.388;2022-09-29T00:57:06;96775.88;;;8.98;100.00
34482;BME280;20720;48.886;9.388;2022-09-29T01:00:18;96770.97;;;8.90;100.00
34482;BME280;20720;48.886;9.388;2022-09-29T01:02:18;96777.38;;;9.06;100.00
34482;BME280;20720;48.886;9.388;2022-09-29T01:04:44;96774.75;;;8.94;100.00
34482;BME280;20720;48.886;9.388;2022-09-29T01:07:11;96766.66;;;9.19;100.00
34482;BME280;20720;48.886;9.388;2022-09-29T01:09:37;96772.38;;;9.16;100.00
34482;BME280;20720;48.886;9.388;2022-09-29T01:12:04;96769.03;;;9.09;100.00
34482;BME280;20720;48.886;9.388;2022-09-29T01:14:30;96764.72;;;9.26;100.00
34482;BME280;20720;48.886;9.388;2022-09-29T01:16:56;96765.50;;;9.26;100.00
34482;BME280;20720;48.886;9.388;2022-09-29T01:19:29;96765.28;;;9.28;100.00
34482;BME280;20720;48.886;9.388;2022-09-29T01:36:44;96777.59;;;8.93;100.00
34482;BME280;20720;48.886;9.388;2022-09-29T01:39:18;96784.53;;;8.87;100.00
34482;BME280;20720;48.886;9.388;2022-09-29T01:41:49;96775.75;;;8.93;100.00
34482;BME280;20720;48.886;9.388;2022-09-29T01:44:36;96778.59;;;8.92;100.00
34482;BME280;20720;48.886;9.388;2022-09-29T01:47:06;96772.47;;;8.98;100.00
34482;BME280;20720;48.886;9.388;2022-09-29T01:49:33;96775.53;;;8.95;100.00
34482;BME280;20720;48.886;9.388;2022-09-29T01:52:02;96776.09;;;8.85;100.00
34482;BME280;20720;48.886;9.388;2022-09-29T01:54:34;96780.66;;;8.90;100.00
34482;BME280;20720;48.886;9.388;2022-09-29T01:57:01;96778.50;;;9.10;100.00
34482;BME280;20720;48.886;9.388;2022-09-29T01:59:33;96783.25;;;8.90;100.00
34482;BME280;20720;48.886;9.388;2022-09-29T02:02:39;96780.22;;;9.04;100.00
34482;BME280;20720;48.886;9.388;2022-09-29T02:05:02;96786.81;;;9.18;100.00
34482;BME280;20720;48.886;9.388;2022-09-29T02:07:33;96785.56;;;9.21;100.00
34482;BME280;20720;48.886;9.388;2022-09-29T02:10:01;96786.16;;;9.23;100.00
34482;BME280;20720;48.886;9.388;2022-09-29T02:12:29;96786.47;;;9.15;100.00
34482;BME280;20720;48.886;9.388;2022-09-29T02:14:56;96786.00;;;9.18;100.00
34482;BME280;20720;48.886;9.388;2022-09-29T02:17:26;96790.09;;;9.37;100.00
34482;BME280;20720;48.886;9.388;2022-09-29T02:19:54;96791.25;;;9.41;100.00
34482;BME280;20720;48.886;9.388;2022-09-29T02:22:19;96788.75;;;9.46;100.00
34482;BME280;20720;48.886;9.388;2022-09-29T02:24:45;96795.91;;;9.39;100.00
34482;BME280;20720;48.886;9.388;2022-09-29T02:27:10;96793.09;;;9.29;100.00
34482;BME280;20720;48.886;9.388;2022-09-29T02:29:36;96789.75;;;9.45;100.00
34482;BME280;20720;48.886;9.388;2022-09-29T02:32:02;96790.09;;;9.60;100.00
34482;BME280;20720;48.886;9.388;2022-09-29T02:34:32;96792.63;;;9.55;100.00
34482;BME280;20720;48.886;9.388;2022-09-29T02:37:01;96791.34;;;9.58;100.00
34482;BME280;20720;48.886;9.388;2022-09-29T02:39:35;96792.69;;;9.72;100.00
34482;BME280;20720;48.886;9.388;2022-09-29T02:47:33;96800.22;;;9.80;100.00
34482;BME280;20720;48.886;9.388;2022-09-29T02:52:33;96795.28;;;9.83;100.00
34482;BME280;20720;48.886;9.388;2022-09-29T02:55:10;96793.47;;;9.84;100.00
34482;BME280;20720;48.886;9.388;2022-09-29T02:57:40;96793.56;;;9.89;100.00
34482;BME280;20720;48.886;9.388;2022-09-29T03:00:11;96790.72;;;9.90;100.00
34482;BME280;20720;48.886;9.388;2022-09-29T03:02:37;96782.28;;;9.88;100.00
34482;BME280;20720;48.886;9.388;2022-09-29T03:05:04;96786.19;;;9.86;100.00
34482;BME280;20720;48.886;9.388;2022-09-29T03:07:29;96775.44;;;9.87;100.00
34482;BME280;20720;48.886;9.388;2022-09-29T03:09:55;96774.63;;;9.87;100.00
34482;BME280;20720;48.886;9.388;2022-09-29T03:12:20;96770.19;;;9.87;100.00
34482;BME280;20720;48.886;9.388;2022-09-29T03:14:45;96764.63;;;9.84;100.00
34482;BME280;20720;48.886;9.388;2022-09-29T03:17:10;96756.53;;;9.85;100.00
34482;BME280;20720;48.886;9.388;2022-09-29T03:19:36;96762.19;;;9.94;100.00
34482;BME280;20720;48.886;9.388;2022-09-29T03:22:01;96759.91;;;9.97;100.00
34482;BME280;20720;48.886;9.388;2022-09-29T03:24:27;96757.50;;;9.96;100.00
34482;BME280;20720;48.886;9.388;2022-09-29T03:26:52;96752.41;;;9.89;100.00
34482;BME280;20720;48.886;9.388;2022-09-29T03:29:17;96751.00;;;9.98;100.00
34482;BME280;20720;48.886;9.388;2022-09-29T03:31:43;96754.31;;;9.94;100.00
34482;BME280;20720;48.886;9.388;2022-09-29T03:34:08;96752.84;;;9.86;100.00
34482;BME280;20720;48.886;9.388;2022-09-29T03:36:33;96747.28;;;9.83;100.00
34482;BME280;20720;48.886;9.388;2022-09-29T03:38:58;96745.78;;;9.87;100.00
34482;BME280;20720;48.886;9.388;2022-09-29T03:41:23;96743.31;;;9.80;100.00
34482;BME280;20720;48.886;9.388;2022-09-29T03:43:49;96746.88;;;9.74;100.00
34482;BME280;20720;48.886;9.388;2022-09-29T03:46:14;96746.59;;;9.87;100.00
34482;BME280;20720;48.886;9.388;2022-09-29T03:48:39;96753.13;;;9.73;100.00
34482;BME280;20720;48.886;9.388;2022-09-29T03:51:05;96749.50;;;9.74;100.00
34482;BME280;20720;48.886;9.388;2022-09-29T03:53:32;96754.81;;;9.79;100.00
34482;BME280;20720;48.886;9.388;2022-09-29T03:55:57;96748.47;;;9.64;100.00
34482;BME280;20720;48.886;9.388;2022-09-29T03:58:22;96753.63;;;9.47;100.00
34482;BME280;20720;48.886;9.388;2022-09-29T04:00:47;96757.06;;;9.59;100.00
34482;BME280;20720;48.886;9.388;2022-09-29T04:03:13;96750.78;;;9.37;100.00
34482;BME280;20720;48.886;9.388;2022-09-29T04:05:39;96747.38;;;9.48;100.00
34482;BME280;20720;48.886;9.388;2022-09-29T04:08:04;96750.59;;;9.38;100.00
34482;BME280;20720;48.886;9.388;2022-09-29T04:10:29;96748.88;;;9.44;100.00
34482;BME280;20720;48.886;9.388;2022-09-29T04:12:54;96749.91;;;9.31;100.00
34482;BME280;20720;48.886;9.388;2022-09-29T04:15:20;96749.22;;;9.13;100.00
34482;BME280;20720;48.886;9.388;2022-09-29T04:17:45;96756.84;;;9.03;100.00
34482;BME280;20720;48.886;9.388;2022-09-29T04:20:10;96760.41;;;8.97;100.00
34482;BME280;20720;48.886;9.388;2022-09-29T04:22:35;96759.13;;;8.99;100.00
34482;BME280;20720;48.886;9.388;2022-09-29T04:25:00;96761.19;;;9.09;100.00
34482;BME280;20720;48.886;9.388;2022-09-29T04:27:25;96764.28;;;9.06;100.00
34482;BME280;20720;48.886;9.388;2022-09-29T04:29:51;96765.28;;;8.82;100.00
34482;BME280;20720;48.886;9.388;2022-09-29T04:32:16;96765.72;;;8.79;100.00
34482;BME280;20720;48.886;9.388;2022-09-29T04:34:41;96754.09;;;8.75;100.00
34482;BME280;20720;48.886;9.388;2022-09-29T04:37:07;96759.81;;;8.72;100.00
34482;BME280;20720;48.886;9.388;2022-09-29T04:39:35;96762.66;;;8.82;100.00
34482;BME280;20720;48.886;9.388;2022-09-29T04:42:00;96761.19;;;8.74;100.00
34482;BME280;20720;48.886;9.388;2022-09-29T04:44:25;96759.78;;;8.60;100.00
34482;BME280;20720;48.886;9.388;2022-09-29T04:46:51;96751.25;;;8.53;100.00
34482;BME280;20720;48.886;9.388;2022-09-29T04:49:17;96752.06;;;8.77;100.00
34482;BME280;20720;48.886;9.388;2022-09-29T04:51:42;96760.94;;;8.76;100.00
34482;BME280;20720;48.886;9.388;2022-09-29T04:54:07;96761.28;;;8.68;100.00
34482;BME280;20720;48.886;9.388;2022-09-29T04:56:33;96765.50;;;8.69;100.00
34482;BME280;20720;48.886;9.388;2022-09-29T04:58:58;96767.66;;;8.72;100.00
34482;BME280;20720;48.886;9.388;2022-09-29T05:01:23;96766.75;;;8.78;100.00
34482;BME280;20720;48.886;9.388;2022-09-29T05:03:49;96777.47;;;8.76;100.00
34482;BME280;20720;48.886;9.388;2022-09-29T05:06:14;96779.59;;;8.68;100.00
34482;BME280;20720;48.886;9.388;2022-09-29T05:08:39;96780.63;;;8.67;100.00
34482;BME280;20720;48.886;9.388;2022-09-29T05:11:05;96789.28;;;8.79;100.00
34482;BME280;20720;48.886;9.388;2022-09-29T05:13:31;96784.19;;;8.84;100.00
34482;BME280;20720;48.886;9.388;2022-09-29T05:15:56;96800.53;;;8.68;100.00
34482;BME280;20720;48.886;9.388;2022-09-29T05:18:22;96798.72;;;8.68;100.00
34482;BME280;20720;48.886;9.388;2022-09-29T05:20:47;96809.84;;;8.64;100.00
34482;BME280;20720;48.886;9.388;2022-09-29T05:23:12;96822.47;;;8.55;100.00
34482;BME280;20720;48.886;9.388;2022-09-29T05:25:37;96833.41;;;8.64;100.00
34482;BME280;20720;48.886;9.388;2022-09-29T05:28:04;96825.06;;;8.96;100.00
34482;BME280;20720;48.886;9.388;2022-09-29T05:30:29;96807.41;;;8.92;100.00
34482;BME280;20720;48.886;9.388;2022-09-29T05:32:54;96822.13;;;9.04;100.00
34482;BME280;20720;48.886;9.388;2022-09-29T05:35:20;96810.81;;;8.81;100.00
34482;BME280;20720;48.886;9.388;2022-09-29T05:37:45;96814.03;;;9.06;100.00
34482;BME280;20720;48.886;9.388;2022-09-29T05:40:10;96811.53;;;9.11;100.00
34482;BME280;20720;48.886;9.388;2022-09-29T05:42:35;96804.72;;;9.10;100.00
34482;BME280;20720;48.886;9.388;2022-09-29T05:45:00;96811.88;;;8.91;100.00
34482;BME280;20720;48.886;9.388;2022-09-29T05:47:26;96813.81;;;9.19;100.00
34482;BME280;20720;48.886;9.388;2022-09-29T05:49:51;96806.06;;;9.47;100.00
34482;BME280;20720;48.886;9.388;2022-09-29T05:52:16;96801.28;;;9.44;100.00
34482;BME280;20720;48.886;9.388;2022-09-29T05:54:41;96808.59;;;9.42;100.00
34482;BME280;20720;48.886;9.388;2022-09-29T05:57:06;96801.50;;;9.54;100.00
34482;BME280;20720;48.886;9.388;2022-09-29T05:59:31;96804.69;;;9.56;100.00
34482;BME280;20720;48.886;9.388;2022-09-29T06:01:57;96794.78;;;9.46;100.00
34482;BME280;20720;48.886;9.388;2022-09-29T06:04:22;96797.38;;;9.58;100.00
34482;BME280;20720;48.886;9.388;2022-09-29T06:06:47;96797.63;;;9.45;100.00
34482;BME280;20720;48.886;9.388;2022-09-29T06:09:12;96797.38;;;9.58;100.00
34482;BME280;20720;48.886;9.388;2022-09-29T06:11:38;96804.34;;;9.41;100.00
34482;BME280;20720;48.886;9.388;2022-09-29T06:14:03;96808.91;;;9.11;100.00
34482;BME280;20720;48.886;9.388;2022-09-29T06:16:30;96800.13;;;8.94;100.00
34482;BME280;20720;48.886;9.388;2022-09-29T06:18:57;96793.88;;;9.41;100.00
34482;BME280;20720;48.886;9.388;2022-09-29T06:21:23;96782.97;;;9.95;100.00
34482;BME280;20720;48.886;9.388;2022-09-29T06:23:49;96788.38;;;10.05;100.00
34482;BME280;20720;48.886;9.388;2022-09-29T06:26:15;96788.13;;;10.18;100.00
34482;BME280;20720;48.886;9.388;2022-09-29T06:28:40;96795.00;;;10.19;100.00
34482;BME280;20720;48.886;9.388;2022-09-29T06:31:06;96804.84;;;10.40;100.00
34482;BME280;20720;48.886;9.388;2022-09-29T06:33:33;96810.66;;;10.43;100.00
34482;BME280;20720;48.886;9.388;2022-09-29T06:35:58;96815.53;;;10.39;100.00
34482;BME280;20720;48.886;9.388;2022-09-29T06:38:45;96823.03;;;10.75;100.00
34482;BME280;20720;48.886;9.388;2022-09-29T06:41:11;96826.94;;;10.89;100.00
34482;BME280;20720;48.886;9.388;2022-09-29T06:43:36;96818.13;;;11.12;100.00
34482;BME280;20720;48.886;9.388;2022-09-29T06:46:02;96827.75;;;11.23;100.00
34482;BME280;20720;48.886;9.388;2022-09-29T06:48:27;96833.97;;;10.84;100.00
34482;BME280;20720;48.886;9.388;2022-09-29T06:50:54;96834.59;;;11.07;100.00
34482;BME280;20720;48.886;9.388;2022-09-29T06:53:19;96834.75;;;11.34;100.00
34482;BME280;20720;48.886;9.388;2022-09-29T06:55:50;96848.94;;;11.33;100.00
34482;BME280;20720;48.886;9.388;2022-09-29T06:58:16;96850.78;;;11.16;100.00
34482;BME280;20720;48.886;9.388;2022-09-29T07:00:41;96848.72;;;11.18;100.00
34482;BME280;20720;48.886;9.388;2022-09-29T07:03:06;96849.59;;;11.07;100.00
34482;BME280;20720;48.886;9.388;2022-09-29T07:05:31;96847.44;;;11.37;100.00
34482;BME280;20720;48.886;9.388;2022-09-29T07:07:56;96857.94;;;11.54;100.00
34482;BME280;20720;48.886;9.388;2022-09-29T07:10:22;96856.59;;;11.18;100.00
34482;BME280;20720;48.886;9.388;2022-09-29T07:12:47;96855.94;;;11.44;100.00
34482;BME280;20720;48.886;9.388;2022-09-29T07:15:13;96860.63;;;11.92;100.00
34482;BME280;20720;48.886;9.388;2022-09-29T07:17:38;96866.38;;;12.10;100.00
34482;BME280;20720;48.886;9.388;2022-09-29T07:20:04;96867.84;;;12.01;100.00
34482;BME280;20720;48.886;9.388;2022-09-29T07:22:29;96863.19;;;12.08;100.00
34482;BME280;20720;48.886;9.388;2022-09-29T07:24:54;96878.09;;;11.81;100.00
34482;BME280;20720;48.886;9.388;2022-09-29T07:27:20;96878.44;;;11.68;100.00
34482;BME280;20720;48.886;9.388;2022-09-29T07:29:48;96880.84;;;12.29;100.00
34482;BME280;20720;48.886;9.388;2022-09-29T07:32:13;96881.84;;;12.28;100.00
34482;BME280;20720;48.886;9.388;2022-09-29T07:34:38;96877.31;;;11.31;100.00
34482;BME280;20720;48.886;9.388;2022-09-29T07:37:04;96881.91;;;11.74;100.00
34482;BME280;20720;48.886;9.388;2022-09-29T07:39:29;96883.25;;;11.93;100.00
34482;BME280;20720;48.886;9.388;2022-09-29T07:41:54;96887.47;;;12.59;100.00
34482;BME280;20720;48.886;9.388;2022-09-29T07:44:20;96885.06;;;12.09;100.00
34482;BME280;20720;48.886;9.388;2022-09-29T07:46:47;96887.19;;;11.57;100.00
34482;BME280;20720;48.886;9.388;2022-09-29T07:49:12;96880.81;;;11.86;100.00
34482;BME280;20720;48.886;9.388;2022-09-29T07:51:37;96885.00;;;12.25;100.00
34482;BME280;20720;48.886;9.388;2022-09-29T07:54:03;96882.53;;;12.89;100.00
34482;BME280;20720;48.886;9.388;2022-09-29T07:56:28;96892.22;;;13.05;100.00
34482;BME280;20720;48.886;9.388;2022-09-29T07:58:54;96890.44;;;13.15;100.00
34482;BME280;20720;48.886;9.388;2022-09-29T08:01:20;96903.66;;;13.47;100.00
34482;BME280;20720;48.886;9.388;2022-09-29T08:03:50;96896.31;;;13.54;100.00
34482;BME280;20720;48.886;9.388;2022-09-29T08:06:15;96905.91;;;13.34;100.00
34482;BME280;20720;48.886;9.388;2022-09-29T08:08:41;96908.44;;;13.18;100.00
34482;BME280;20720;48.886;9.388;2022-09-29T08:11:07;96904.66;;;13.78;100.00
34482;BME280;20720;48.886;9.388;2022-09-29T08:13:32;96915.47;;;13.76;100.00
34482;BME280;20720;48.886;9.388;2022-09-29T08:16:00;96917.41;;;14.33;100.00
34482;BME280;20720;48.886;9.388;2022-09-29T08:18:26;96911.22;;;14.59;100.00
34482;BME280;20720;48.886;9.388;2022-09-29T08:20:51;96921.53;;;14.13;100.00
34482;BME280;20720;48.886;9.388;2022-09-29T08:23:18;96920.16;;;14.48;100.00
34482;BME280;20720;48.886;9.388;2022-09-29T08:25:43;96911.81;;;14.86;100.00
34482;BME280;20720;48.886;9.388;2022-09-29T08:28:08;96925.94;;;14.40;100.00
34482;BME280;20720;48.886;9.388;2022-09-29T08:30:35;96920.34;;;15.13;100.00
34482;BME280;20720;48.886;9.388;2022-09-29T08:33:00;96928.25;;;15.03;100.00
34482;BME280;20720;48.886;9.388;2022-09-29T08:35:26;96919.34;;;15.59;100.00
34482;BME280;20720;48.886;9.388;2022-09-29T08:37:52;96937.88;;;15.64;100.00
34482;BME280;20720;48.886;9.388;2022-09-29T08:40:17;96938.41;;;15.66;100.00
34482;BME280;20720;48.886;9.388;2022-09-29T08:42:55;96942.63;;;15.62;100.00
34482;BME280;20720;48.886;9.388;2022-09-29T08:45:28;96939.47;;;15.85;100.00
34482;BME280;20720;48.886;9.388;2022-09-29T08:47:58;96951.09;;;16.05;100.00
34482;BME280;20720;48.886;9.388;2022-09-29T08:50:30;96956.91;;;16.12;100.00
34482;BME280;20720;48.886;9.388;2022-09-29T08:52:57;96960.44;;;16.81;100.00
34482;BME280;20720;48.886;9.388;2022-09-29T08:58:12;96961.19;;;15.77;100.00
34482;BME280;20720;48.886;9.388;2022-09-29T09:06:20;96957.25;;;16.84;100.00
34482;BME280;20720;48.886;9.388;2022-09-29T09:11:55;96968.22;;;16.52;100.00
34482;BME280;20720;48.886;9.388;2022-09-29T09:14:31;96979.13;;;16.56;100.00
34482;BME280;20720;48.886;9.388;2022-09-29T09:17:16;96983.06;;;17.22;100.00
34482;BME280;20720;48.886;9.388;2022-09-29T09:22:24;96996.25;;;18.15;85.26
34482;BME280;20720;48.886;9.388;2022-09-29T09:25:00;96994.00;;;15.56;100.00
34482;BME280;20720;48.886;9.388;2022-09-29T09:27:41;96993.19;;;14.69;100.00
34482;BME280;20720;48.886;9.388;2022-09-29T09:30:12;96979.72;;;15.62;100.00
34482;BME280;20720;48.886;9.388;2022-09-29T09:32:40;96990.97;;;16.78;100.00
34482;BME280;20720;48.886;9.388;2022-09-29T09:37:51;97005.75;;;18.21;91.26
34482;BME280;20720;48.886;9.388;2022-09-29T09:40:19;97009.53;;;18.43;86.90
34482;BME280;20720;48.886;9.388;2022-09-29T09:42:52;97011.81;;;17.98;89.04
34482;BME280;20720;48.886;9.388;2022-09-29T09:45:24;97012.09;;;18.25;86.31
34482;BME280;20720;48.886;9.388;2022-09-29T09:47:52;97012.16;;;16.83;93.12
34482;BME280;20720;48.886;9.388;2022-09-29T09:50:22;97017.78;;;16.72;98.45
34482;BME280;20720;48.886;9.388;2022-09-29T09:53:00;97016.78;;;16.13;100.00
34482;BME280;20720;48.886;9.388;2022-09-29T09:55:28;97017.34;;;15.89;100.00
34482;BME280;20720;48.886;9.388;2022-09-29T09:58:21;97017.56;;;15.58;100.00
34482;BME280;20720;48.886;9.388;2022-09-29T10:01:00;97025.25;;;16.15;100.00
34482;BME280;20720;48.886;9.388;2022-09-29T10:03:26;97018.47;;;17.03;100.00
34482;BME280;20720;48.886;9.388;2022-09-29T10:05:52;97018.19;;;17.04;100.00
34482;BME280;20720;48.886;9.388;2022-09-29T10:10:49;97020.88;;;17.53;96.44
34482;BME280;20720;48.886;9.388;2022-09-29T10:13:15;97018.06;;;16.60;100.00
34482;BME280;20720;48.886;9.388;2022-09-29T10:20:46;97017.56;;;17.27;100.00
34482;BME280;20720;48.886;9.388;2022-09-29T10:23:19;97017.97;;;17.49;96.38
34482;BME280;20720;48.886;9.388;2022-09-29T10:25:51;97025.94;;;17.49;96.66
34482;BME280;20720;48.886;9.388;2022-09-29T10:28:18;97033.16;;;16.70;100.00
34482;BME280;20720;48.886;9.388;2022-09-29T10:30:43;97016.78;;;16.33;100.00
34482;BME280;20720;48.886;9.388;2022-09-29T10:33:10;97019.66;;;17.35;99.48
34482;BME280;20720;48.886;9.388;2022-09-29T10:35:39;97016.84;;;17.60;95.71
34482;BME280;20720;48.886;9.388;2022-09-29T10:38:05;97018.78;;;16.91;100.00
34482;BME280;20720;48.886;9.388;2022-09-29T10:40:31;97022.03;;;16.43;98.11
34482;BME280;20720;48.886;9.388;2022-09-29T10:42:57;97017.44;;;17.47;100.00
34482;BME280;20720;48.886;9.388;2022-09-29T10:45:23;97018.28;;;18.49;91.50
34482;BME280;20720;48.886;9.388;2022-09-29T10:50:22;97021.47;;;17.40;93.11
34482;BME280;20720;48.886;9.388;2022-09-29T10:52:54;97030.22;;;17.50;91.04
34482;BME280;20720;48.886;9.388;2022-09-29T10:55:23;97030.19;;;18.23;92.88
34482;BME280;20720;48.886;9.388;2022-09-29T10:57:50;97025.63;;;18.57;88.06
34482;BME280;20720;48.886;9.388;2022-09-29T11:02:57;97024.91;;;19.22;85.28
34482;BME280;20720;48.886;9.388;2022-09-29T11:05:25;97024.06;;;19.03;82.07
34482;BME280;20720;48.886;9.388;2022-09-29T11:07:51;97034.78;;;18.46;84.09
34482;BME280;20720;48.886;9.388;2022-09-29T11:10:33;97029.53;;;20.10;75.11
34482;BME280;20720;48.886;9.388;2022-09-29T11:13:03;97029.50;;;18.41;81.06
34482;BME280;20720;48.886;9.388;2022-09-29T11:15:44;97031.88;;;18.71;90.76
34482;BME280;20720;48.886;9.388;2022-09-29T11:18:20;97032.78;;;19.88;77.40
34482;BME280;20720;48.886;9.388;2022-09-29T11:20:48;97032.56;;;21.35;70.91
34482;BME280;20720;48.886;9.388;2022-09-29T11:26:05;97041.56;;;18.00;79.29
34482;BME280;20720;48.886;9.388;2022-09-29T11:33:28;97023.22;;;20.38;72.11
34482;BME280;20720;48.886;9.388;2022-09-29T11:36:03;97018.34;;;20.26;68.59
34482;BME280;20720;48.886;9.388;2022-09-29T11:38:40;97018.94;;;20.37;69.01
34482;BME280;20720;48.886;9.388;2022-09-29T11:43:55;97024.06;;;20.79;69.75
34482;BME280;20720;48.886;9.388;2022-09-29T11:48:59;97036.78;;;18.02;75.36
34482;BME280;20720;48.886;9.388;2022-09-29T11:54:22;97030.97;;;19.84;71.62
34482;BME280;20720;48.886;9.388;2022-09-29T11:56:56;97037.59;;;20.83;67.47
34482;BME280;20720;48.886;9.388;2022-09-29T12:04:56;97027.72;;;20.24;65.40
34482;BME280;20720;48.886;9.388;2022-09-29T12:08:12;97030.78;;;20.90;63.76
34482;BME280;20720;48.886;9.388;2022-09-29T12:12:44;97030.69;;;19.66;68.66
34482;BME280;20720;48.886;9.388;2022-09-29T12:17:47;97027.75;;;19.87;67.31
34482;BME280;20720;48.886;9.388;2022-09-29T12:20:30;97025.97;;;19.45;68.68
34482;BME280;20720;48.886;9.388;2022-09-29T12:22:59;97023.31;;;19.21;64.67
34482;BME280;20720;48.886;9.388;2022-09-29T12:25:27;97012.63;;;19.82;62.94
34482;BME280;20720;48.886;9.388;2022-09-29T12:27:54;97015.44;;;20.55;63.70
34482;BME280;20720;48.886;9.388;2022-09-29T12:30:55;97019.53;;;20.02;63.26
34482;BME280;20720;48.886;9.388;2022-09-29T12:33:27;97012.84;;;19.06;65.67
34482;BME280;20720;48.886;9.388;2022-09-29T12:36:12;97014.88;;;21.62;56.74
34482;BME280;20720;48.886;9.388;2022-09-29T12:39:03;97012.44;;;21.51;55.00
34482;BME280;20720;48.886;9.388;2022-09-29T12:41:34;97027.09;;;21.90;53.21
34482;BME280;20720;48.886;9.388;2022-09-29T12:44:13;97025.44;;;22.77;52.58
34482;BME280;20720;48.886;9.388;2022-09-29T12:46:44;97022.78;;;19.43;56.64
34482;BME280;20720;48.886;9.388;2022-09-29T12:51:43;97020.25;;;17.66;69.78
34482;BME280;20720;48.886;9.388;2022-09-29T12:56:56;97019.78;;;17.05;76.21
34482;BME280;20720;48.886;9.388;2022-09-29T12:59:31;97017.22;;;16.80;76.00
34482;BME280;20720;48.886;9.388;2022-09-29T13:01:59;97012.72;;;18.93;69.95
34482;BME280;20720;48.886;9.388;2022-09-29T13:12:16;97013.16;;;19.23;70.11
34482;BME280;20720;48.886;9.388;2022-09-29T13:17:20;97030.63;;;19.34;67.35
34482;BME280;20720;48.886;9.388;2022-09-29T13:19:57;97025.59;;;19.89;67.13
34482;BME280;20720;48.886;9.388;2022-09-29T13:27:38;97028.16;;;18.96;67.42
34482;BME280;20720;48.886;9.388;2022-09-29T13:32:44;97032.41;;;16.59;77.33
34482;BME280;20720;48.886;9.388;2022-09-29T13:35:14;97030.53;;;16.60;80.67
34482;BME280;20720;48.886;9.388;2022-09-29T13:37:42;97034.53;;;17.31;74.73
34482;BME280;20720;48.886;9.388;2022-09-29T13:40:14;97030.97;;;18.57;74.20
34482;BME280;20720;48.886;9.388;2022-09-29T13:42:45;97030.88;;;18.67;67.14
34482;BME280;20720;48.886;9.388;2022-09-29T13:47:55;97036.94;;;18.44;69.85
34482;BME280;20720;48.886;9.388;2022-09-29T13:53:33;97042.63;;;19.08;67.53
34482;BME280;20720;48.886;9.388;2022-09-29T13:58:30;97040.81;;;19.51;65.91
34482;BME280;20720;48.886;9.388;2022-09-29T14:00:57;97042.97;;;19.25;64.72
34482;BME280;20720;48.886;9.388;2022-09-29T14:03:24;97041.38;;;19.24;66.85
34482;BME280;20720;48.886;9.388;2022-09-29T14:06:33;97040.31;;;19.67;66.46
34482;BME280;20720;48.886;9.388;2022-09-29T14:08:43;97042.09;;;19.91;64.43
34482;BME280;20720;48.886;9.388;2022-09-29T14:16:13;97041.09;;;19.68;65.72
34482;BME280;20720;48.886;9.388;2022-09-29T14:18:42;97040.84;;;19.64;67.12
34482;BME280;20720;48.886;9.388;2022-09-29T14:21:10;97060.09;;;18.43;72.55
34482;BME280;20720;48.886;9.388;2022-09-29T14:28:53;97064.50;;;18.24;69.56
34482;BME280;20720;48.886;9.388;2022-09-29T14:31:20;97068.13;;;18.67;70.07
34482;BME280;20720;48.886;9.388;2022-09-29T14:33:46;97070.75;;;18.05;70.54
34482;BME280;20720;48.886;9.388;2022-09-29T14:36:14;97078.38;;;18.16;72.57
34482;BME280;20720;48.886;9.388;2022-09-29T14:38:44;97079.72;;;18.14;73.96
34482;BME280;20720;48.886;9.388;2022-09-29T14:51:36;97079.44;;;17.18;78.43
34482;BME280;20720;48.886;9.388;2022-09-29T14:54:32;97085.91;;;17.60;80.89
34482;BME280;20720;48.886;9.388;2022-09-29T15:00:11;97088.19;;;17.82;80.87
34482;BME280;20720;48.886;9.388;2022-09-29T15:02:42;97091.28;;;17.94;80.77
34482;BME280;20720;48.886;9.388;2022-09-29T15:05:13;97089.50;;;17.84;78.98
34482;BME280;20720;48.886;9.388;2022-09-29T15:07:40;97084.72;;;17.81;80.70
34482;BME280;20720;48.886;9.388;2022-09-29T15:10:13;97093.25;;;17.78;82.69
34482;BME280;20720;48.886;9.388;2022-09-29T15:12:43;97090.00;;;17.86;81.58
34482;BME280;20720;48.886;9.388;2022-09-29T15:15:34;97087.63;;;17.85;81.88
34482;BME280;20720;48.886;9.388;2022-09-29T15:20:55;97092.59;;;17.97;80.67
34482;BME280;20720;48.886;9.388;2022-09-29T15:25:52;97090.97;;;17.57;81.40